sensor_id;sensor_type;location;lat;lon;timestamp;temperature;humidity
26212;DHT22;13951;49.516;6.094;2023-08-30T00:01:25;14.60;99.90
26212;DHT22;13951;49.516;6.094;2023-08-30T00:03:59;14.60;99.90
26212;DHT22;13951;49.516;6.094;2023-08-30T00:06:32;14.70;99.90
26212;DHT22;13951;49.516;6.094;2023-08-30T00:09:06;14.70;99.90
26212;DHT22;13951;49.516;6.094;2023-08-30T00:11:39;14.70;99.90
26212;DHT22;13951;49.516;6.094;2023-08-30T00:14:13;14.60;99.90
26212;DHT22;13951;49.516;6.094;2023-08-30T00:16:47;14.70;99.90
26212;DHT22;13951;49.516;6.094;2023-08-30T00:19:21;14.70;99.90
26212;DHT22;13951;49.516;6.094;2023-08-30T00:21:54;14.60;99.90
26212;DHT22;13951;49.516;6.094;2023-08-30T00:24:27;14.70;99.90
26212;DHT22;13951;49.516;6.094;2023-08-30T00:27:02;14.70;99.90
26212;DHT22;13951;49.516;6.094;2023-08-30T00:29:35;14.70;99.90
26212;DHT22;13951;49.516;6.094;2023-08-30T00:32:09;14.70;99.90
26212;DHT22;13951;49.516;6.094;2023-08-30T00:34:42;14.70;99.90
26212;DHT22;13951;49.516;6.094;2023-08-30T00:37:16;14.70;99.90
26212;DHT22;13951;49.516;6.094;2023-08-30T00:39:49;14.70;99.90
26212;DHT22;13951;49.516;6.094;2023-08-30T00:42:23;14.70;99.90
26212;DHT22;13951;49.516;6.094;2023-08-30T00:44:56;14.60;99.90
26212;DHT22;13951;49.516;6.094;2023-08-30T00:47:29;14.60;99.90
26212;DHT22;13951;49.516;6.094;2023-08-30T00:50:04;14.60;99.90
26212;DHT22;13951;49.516;6.094;2023-08-30T00:52:39;14.60;99.90
26212;DHT22;13951;49.516;6.094;2023-08-30T00:55:12;14.60;99.90
26212;DHT22;13951;49.516;6.094;2023-08-30T00:57:46;14.60;99.90
26212;DHT22;13951;49.516;6.094;2023-08-30T01:00:20;14.60;99.90
26212;DHT22;13951;49.516;6.094;2023-08-30T01:02:56;14.50;99.90
26212;DHT22;13951;49.516;6.094;2023-08-30T01:05:29;14.50;99.90
26212;DHT22;13951;49.516;6.094;2023-08-30T01:08:03;14.50;99.90
26212;DHT22;13951;49.516;6.094;2023-08-30T01:13:56;14.40;99.90
26212;DHT22;13951;49.516;6.094;2023-08-30T01:16:31;14.40;99.90
26212;DHT22;13951;49.516;6.094;2023-08-30T01:22:02;14.40;99.90
26212;DHT22;13951;49.516;6.094;2023-08-30T01:27:40;14.30;99.90
26212;DHT22;13951;49.516;6.094;2023-08-30T01:30:14;14.40;99.90
26212;DHT22;13951;49.516;6.094;2023-08-30T01:32:49;14.30;99.90
26212;DHT22;13951;49.516;6.094;2023-08-30T01:35:28;14.30;99.90
26212;DHT22;13951;49.516;6.094;2023-08-30T01:38:06;14.30;99.90
26212;DHT22;13951;49.516;6.094;2023-08-30T01:40:42;14.30;99.90
26212;DHT22;13951;49.516;6.094;2023-08-30T01:43:18;14.20;99.90
26212;DHT22;13951;49.516;6.094;2023-08-30T01:45:54;14.20;99.90
26212;DHT22;13951;49.516;6.094;2023-08-30T01:48:29;14.30;99.90
26212;DHT22;13951;49.516;6.094;2023-08-30T01:51:04;14.30;99.90
26212;DHT22;13951;49.516;6.094;2023-08-30T01:53:40;14.30;99.90
26212;DHT22;13951;49.516;6.094;2023-08-30T01:56:16;14.30;99.90
26212;DHT22;13951;49.516;6.094;2023-08-30T01:58:51;14.30;99.90
26212;DHT22;13951;49.516;6.094;2023-08-30T02:01:26;14.30;99.90
26212;DHT22;13951;49.516;6.094;2023-08-30T02:04:00;14.40;99.90
26212;DHT22;13951;49.516;6.094;2023-08-30T02:07:04;14.40;99.90
26212;DHT22;13951;49.516;6.094;2023-08-30T02:09:46;14.30;99.90
26212;DHT22;13951;49.516;6.094;2023-08-30T02:12:23;14.30;99.90
26212;DHT22;13951;49.516;6.094;2023-08-30T02:15:01;14.20;99.90
26212;DHT22;13951;49.516;6.094;2023-08-30T02:17:36;14.20;99.90
26212;DHT22;13951;49.516;6.094;2023-08-30T02:20:11;14.20;99.90
26212;DHT22;13951;49.516;6.094;2023-08-30T02:22:44;14.20;99.90
26212;DHT22;13951;49.516;6.094;2023-08-30T02:25:18;14.20;99.90
26212;DHT22;13951;49.516;6.094;2023-08-30T02:27:52;14.20;99.90
26212;DHT22;13951;49.516;6.094;2023-08-30T02:30:25;14.20;99.90
26212;DHT22;13951;49.516;6.094;2023-08-30T02:32:58;14.10;99.90
26212;DHT22;13951;49.516;6.094;2023-08-30T02:35:32;14.10;99.90
26212;DHT22;13951;49.516;6.094;2023-08-30T02:38:05;14.10;99.90
26212;DHT22;13951;49.516;6.094;2023-08-30T02:40:38;14.00;99.90
26212;DHT22;13951;49.516;6.094;2023-08-30T02:43:13;14.00;99.90
26212;DHT22;13951;49.516;6.094;2023-08-30T02:45:46;14.00;99.90
26212;DHT22;13951;49.516;6.094;2023-08-30T02:48:20;14.00;99.90
26212;DHT22;13951;49.516;6.094;2023-08-30T02:50:53;13.90;99.90
26212;DHT22;13951;49.516;6.094;2023-08-30T02:53:28;13.80;99.90
26212;DHT22;13951;49.516;6.094;2023-08-30T02:56:01;13.70;99.90
26212;DHT22;13951;49.516;6.094;2023-08-30T02:58:46;13.60;99.90
26212;DHT22;13951;49.516;6.094;2023-08-30T03:01:20;13.60;99.90
26212;DHT22;13951;49.516;6.094;2023-08-30T03:03:55;13.60;99.90
26212;DHT22;13951;49.516;6.094;2023-08-30T03:06:28;13.60;99.90
26212;DHT22;13951;49.516;6.094;2023-08-30T03:09:02;13.60;99.90
26212;DHT22;13951;49.516;6.094;2023-08-30T03:11:40;13.70;99.90
26212;DHT22;13951;49.516;6.094;2023-08-30T03:14:16;13.70;99.90
26212;DHT22;13951;49.516;6.094;2023-08-30T03:16:50;13.70;99.90
26212;DHT22;13951;49.516;6.094;2023-08-30T03:19:23;13.70;99.90
26212;DHT22;13951;49.516;6.094;2023-08-30T03:21:57;13.70;99.90
26212;DHT22;13951;49.516;6.094;2023-08-30T03:24:30;13.70;99.90
26212;DHT22;13951;49.516;6.094;2023-08-30T03:27:03;13.60;99.90
26212;DHT22;13951;49.516;6.094;2023-08-30T03:29:37;13.60;99.90
26212;DHT22;13951;49.516;6.094;2023-08-30T03:32:16;13.50;99.90
26212;DHT22;13951;49.516;6.094;2023-08-30T03:34:54;13.50;99.90
26212;DHT22;13951;49.516;6.094;2023-08-30T03:37:29;13.50;99.90
26212;DHT22;13951;49.516;6.094;2023-08-30T03:40:03;13.30;99.90
26212;DHT22;13951;49.516;6.094;2023-08-30T03:42:38;13.20;99.90
26212;DHT22;13951;49.516;6.094;2023-08-30T03:45:15;13.10;99.90
26212;DHT22;13951;49.516;6.094;2023-08-30T03:48:03;13.20;99.90
26212;DHT22;13951;49.516;6.094;2023-08-30T03:50:52;13.10;99.90
26212;DHT22;13951;49.516;6.094;2023-08-30T03:53:28;13.10;99.90
26212;DHT22;13951;49.516;6.094;2023-08-30T03:56:04;13.10;99.90
26212;DHT22;13951;49.516;6.094;2023-08-30T03:58:38;13.10;99.90
26212;DHT22;13951;49.516;6.094;2023-08-30T04:01:19;13.00;99.90
26212;DHT22;13951;49.516;6.094;2023-08-30T04:03:57;13.00;99.90
26212;DHT22;13951;49.516;6.094;2023-08-30T04:06:32;13.00;99.90
26212;DHT22;13951;49.516;6.094;2023-08-30T04:09:06;13.00;99.90
26212;DHT22;13951;49.516;6.094;2023-08-30T04:11:53;13.10;99.90
26212;DHT22;13951;49.516;6.094;2023-08-30T04:14:48;13.00;99.90
26212;DHT22;13951;49.516;6.094;2023-08-30T04:17:28;13.00;99.90
26212;DHT22;13951;49.516;6.094;2023-08-30T04:20:13;13.10;99.90
26212;DHT22;13951;49.516;6.094;2023-08-30T04:23:02;13.10;99.90
26212;DHT22;13951;49.516;6.094;2023-08-30T04:25:37;13.10;99.90
26212;DHT22;13951;49.516;6.094;2023-08-30T04:28:17;13.10;99.90
26212;DHT22;13951;49.516;6.094;2023-08-30T04:31:14;13.10;99.90
26212;DHT22;13951;49.516;6.094;2023-08-30T04:33:51;13.10;99.90
26212;DHT22;13951;49.516;6.094;2023-08-30T04:36:26;12.90;99.90
26212;DHT22;13951;49.516;6.094;2023-08-30T04:39:21;12.90;99.90
26212;DHT22;13951;49.516;6.094;2023-08-30T04:42:17;12.80;99.90
26212;DHT22;13951;49.516;6.094;2023-08-30T04:45:14;12.80;99.90
26212;DHT22;13951;49.516;6.094;2023-08-30T04:48:03;12.70;99.90
26212;DHT22;13951;49.516;6.094;2023-08-30T04:50:41;12.70;99.90
26212;DHT22;13951;49.516;6.094;2023-08-30T04:53:18;12.60;99.90
26212;DHT22;13951;49.516;6.094;2023-08-30T04:55:59;12.60;99.90
26212;DHT22;13951;49.516;6.094;2023-08-30T04:58:39;12.50;99.90
26212;DHT22;13951;49.516;6.094;2023-08-30T05:01:15;12.50;99.90
26212;DHT22;13951;49.516;6.094;2023-08-30T05:03:55;12.50;99.90
26212;DHT22;13951;49.516;6.094;2023-08-30T05:06:31;12.50;99.90
26212;DHT22;13951;49.516;6.094;2023-08-30T05:09:07;12.50;99.90
26212;DHT22;13951;49.516;6.094;2023-08-30T05:11:54;12.50;99.90
26212;DHT22;13951;49.516;6.094;2023-08-30T05:14:28;12.60;99.90
26212;DHT22;13951;49.516;6.094;2023-08-30T05:17:16;12.50;99.90
26212;DHT22;13951;49.516;6.094;2023-08-30T05:19:50;12.60;99.90
26212;DHT22;13951;49.516;6.094;2023-08-30T05:22:33;12.60;99.90
26212;DHT22;13951;49.516;6.094;2023-08-30T05:25:11;12.60;99.90
26212;DHT22;13951;49.516;6.094;2023-08-30T05:27:46;12.60;99.90
26212;DHT22;13951;49.516;6.094;2023-08-30T05:30:23;12.70;99.90
26212;DHT22;13951;49.516;6.094;2023-08-30T05:32:59;12.70;99.90
26212;DHT22;13951;49.516;6.094;2023-08-30T05:36:08;12.80;99.90
26212;DHT22;13951;49.516;6.094;2023-08-30T05:39:00;12.80;99.90
26212;DHT22;13951;49.516;6.094;2023-08-30T05:41:48;12.90;99.90
26212;DHT22;13951;49.516;6.094;2023-08-30T05:44:53;12.90;99.90
26212;DHT22;13951;49.516;6.094;2023-08-30T05:47:27;12.90;99.90
26212;DHT22;13951;49.516;6.094;2023-08-30T05:50:01;12.90;99.90
26212;DHT22;13951;49.516;6.094;2023-08-30T05:52:35;12.90;99.90
26212;DHT22;13951;49.516;6.094;2023-08-30T05:55:15;13.00;99.90
26212;DHT22;13951;49.516;6.094;2023-08-30T05:57:48;13.10;99.90
26212;DHT22;13951;49.516;6.094;2023-08-30T06:00:24;13.10;99.90
26212;DHT22;13951;49.516;6.094;2023-08-30T06:03:04;13.10;99.90
26212;DHT22;13951;49.516;6.094;2023-08-30T06:05:37;13.10;99.90
26212;DHT22;13951;49.516;6.094;2023-08-30T06:08:11;13.10;99.90
26212;DHT22;13951;49.516;6.094;2023-08-30T06:10:45;13.20;99.90
26212;DHT22;13951;49.516;6.094;2023-08-30T06:13:18;13.20;99.90
26212;DHT22;13951;49.516;6.094;2023-08-30T06:15:52;13.30;99.90
26212;DHT22;13951;49.516;6.094;2023-08-30T06:18:29;13.30;99.90
26212;DHT22;13951;49.516;6.094;2023-08-30T06:21:02;13.30;99.90
26212;DHT22;13951;49.516;6.094;2023-08-30T06:23:38;13.40;99.90
26212;DHT22;13951;49.516;6.094;2023-08-30T06:26:11;13.50;99.90
26212;DHT22;13951;49.516;6.094;2023-08-30T06:28:44;13.60;99.90
26212;DHT22;13951;49.516;6.094;2023-08-30T06:31:35;13.70;99.90
26212;DHT22;13951;49.516;6.094;2023-08-30T06:34:08;13.80;99.90
26212;DHT22;13951;49.516;6.094;2023-08-30T06:36:42;13.90;99.90
26212;DHT22;13951;49.516;6.094;2023-08-30T06:39:18;14.00;99.90
26212;DHT22;13951;49.516;6.094;2023-08-30T06:41:51;14.20;99.90
26212;DHT22;13951;49.516;6.094;2023-08-30T06:44:25;14.30;99.90
26212;DHT22;13951;49.516;6.094;2023-08-30T06:46:59;14.50;99.90
26212;DHT22;13951;49.516;6.094;2023-08-30T06:49:34;14.50;99.90
26212;DHT22;13951;49.516;6.094;2023-08-30T06:52:07;14.60;99.90
26212;DHT22;13951;49.516;6.094;2023-08-30T06:54:40;14.70;99.90
26212;DHT22;13951;49.516;6.094;2023-08-30T06:57:14;14.80;99.90
26212;DHT22;13951;49.516;6.094;2023-08-30T06:59:47;15.00;99.90
26212;DHT22;13951;49.516;6.094;2023-08-30T07:02:20;15.20;99.90
26212;DHT22;13951;49.516;6.094;2023-08-30T07:04:53;15.40;99.90
26212;DHT22;13951;49.516;6.094;2023-08-30T07:07:26;15.60;99.90
26212;DHT22;13951;49.516;6.094;2023-08-30T07:10:00;15.70;99.90
26212;DHT22;13951;49.516;6.094;2023-08-30T07:12:34;15.90;99.90
26212;DHT22;13951;49.516;6.094;2023-08-30T07:15:07;16.10;99.90
26212;DHT22;13951;49.516;6.094;2023-08-30T07:17:41;16.30;99.90
26212;DHT22;13951;49.516;6.094;2023-08-30T07:20:21;16.40;99.90
26212;DHT22;13951;49.516;6.094;2023-08-30T07:22:54;16.60;99.90
26212;DHT22;13951;49.516;6.094;2023-08-30T07:25:29;16.60;99.90
26212;DHT22;13951;49.516;6.094;2023-08-30T07:28:06;16.70;99.90
26212;DHT22;13951;49.516;6.094;2023-08-30T07:30:40;16.80;99.90
26212;DHT22;13951;49.516;6.094;2023-08-30T07:33:14;16.80;99.90
26212;DHT22;13951;49.516;6.094;2023-08-30T07:35:47;16.90;99.90
26212;DHT22;13951;49.516;6.094;2023-08-30T07:38:20;16.90;99.90
26212;DHT22;13951;49.516;6.094;2023-08-30T07:40:53;16.90;99.90
26212;DHT22;13951;49.516;6.094;2023-08-30T07:43:27;17.00;99.90
26212;DHT22;13951;49.516;6.094;2023-08-30T07:46:00;17.10;99.90
26212;DHT22;13951;49.516;6.094;2023-08-30T07:48:35;17.30;99.90
26212;DHT22;13951;49.516;6.094;2023-08-30T07:51:08;17.40;99.90
26212;DHT22;13951;49.516;6.094;2023-08-30T07:53:41;17.50;99.90
26212;DHT22;13951;49.516;6.094;2023-08-30T07:56:14;17.70;99.90
26212;DHT22;13951;49.516;6.094;2023-08-30T07:58:47;17.90;99.90
26212;DHT22;13951;49.516;6.094;2023-08-30T08:01:23;17.80;99.90
26212;DHT22;13951;49.516;6.094;2023-08-30T08:03:57;17.90;99.90
26212;DHT22;13951;49.516;6.094;2023-08-30T08:06:39;18.00;99.90
26212;DHT22;13951;49.516;6.094;2023-08-30T08:09:13;18.10;99.90
26212;DHT22;13951;49.516;6.094;2023-08-30T08:11:46;18.20;99.90
26212;DHT22;13951;49.516;6.094;2023-08-30T08:14:23;18.30;99.90
26212;DHT22;13951;49.516;6.094;2023-08-30T08:16:58;18.40;99.90
26212;DHT22;13951;49.516;6.094;2023-08-30T08:19:32;18.50;99.90
26212;DHT22;13951;49.516;6.094;2023-08-30T08:22:06;18.70;99.90
26212;DHT22;13951;49.516;6.094;2023-08-30T08:24:40;18.70;99.90
26212;DHT22;13951;49.516;6.094;2023-08-30T08:27:21;18.80;99.90
26212;DHT22;13951;49.516;6.094;2023-08-30T08:29:57;18.90;99.90
26212;DHT22;13951;49.516;6.094;2023-08-30T08:32:31;18.90;99.90
26212;DHT22;13951;49.516;6.094;2023-08-30T08:35:04;18.90;99.90
26212;DHT22;13951;49.516;6.094;2023-08-30T08:37:38;18.90;99.90
26212;DHT22;13951;49.516;6.094;2023-08-30T08:40:11;18.90;99.90
26212;DHT22;13951;49.516;6.094;2023-08-30T08:42:45;18.90;99.90
26212;DHT22;13951;49.516;6.094;2023-08-30T08:45:21;18.80;99.90
26212;DHT22;13951;49.516;6.094;2023-08-30T08:47:55;18.70;99.90
26212;DHT22;13951;49.516;6.094;2023-08-30T08:50:30;18.50;99.90
26212;DHT22;13951;49.516;6.094;2023-08-30T08:53:05;18.40;99.90
26212;DHT22;13951;49.516;6.094;2023-08-30T08:55:42;18.40;99.90
26212;DHT22;13951;49.516;6.094;2023-08-30T08:58:17;18.30;99.90
26212;DHT22;13951;49.516;6.094;2023-08-30T09:00:52;18.30;99.90
26212;DHT22;13951;49.516;6.094;2023-08-30T09:03:26;18.30;99.90
26212;DHT22;13951;49.516;6.094;2023-08-30T09:06:02;18.30;99.90
26212;DHT22;13951;49.516;6.094;2023-08-30T09:08:36;18.30;99.90
26212;DHT22;13951;49.516;6.094;2023-08-30T09:11:10;18.30;99.90
26212;DHT22;13951;49.516;6.094;2023-08-30T09:13:44;18.30;99.90
26212;DHT22;13951;49.516;6.094;2023-08-30T09:16:17;18.40;99.90
26212;DHT22;13951;49.516;6.094;2023-08-30T09:18:59;18.40;99.90
26212;DHT22;13951;49.516;6.094;2023-08-30T09:21:51;18.40;99.90
26212;DHT22;13951;49.516;6.094;2023-08-30T09:24:25;18.50;99.90
26212;DHT22;13951;49.516;6.094;2023-08-30T09:26:59;18.60;99.90
26212;DHT22;13951;49.516;6.094;2023-08-30T09:29:34;18.70;99.90
26212;DHT22;13951;49.516;6.094;2023-08-30T09:32:11;18.70;99.90
26212;DHT22;13951;49.516;6.094;2023-08-30T09:34:48;18.80;99.90
26212;DHT22;13951;49.516;6.094;2023-08-30T09:37:22;18.90;99.90
26212;DHT22;13951;49.516;6.094;2023-08-30T09:39:59;19.10;99.90
26212;DHT22;13951;49.516;6.094;2023-08-30T09:42:32;19.30;99.90
26212;DHT22;13951;49.516;6.094;2023-08-30T09:45:17;19.40;99.90
26212;DHT22;13951;49.516;6.094;2023-08-30T09:47:51;19.40;99.90
26212;DHT22;13951;49.516;6.094;2023-08-30T09:50:24;19.40;99.90
26212;DHT22;13951;49.516;6.094;2023-08-30T09:52:57;19.40;99.90
26212;DHT22;13951;49.516;6.094;2023-08-30T09:55:30;19.60;99.90
26212;DHT22;13951;49.516;6.094;2023-08-30T09:58:05;19.70;99.90
26212;DHT22;13951;49.516;6.094;2023-08-30T10:00:39;19.80;99.90
26212;DHT22;13951;49.516;6.094;2023-08-30T10:03:12;19.70;99.90
26212;DHT22;13951;49.516;6.094;2023-08-30T10:06:03;19.60;99.90
26212;DHT22;13951;49.516;6.094;2023-08-30T10:08:41;19.60;99.90
26212;DHT22;13951;49.516;6.094;2023-08-30T10:11:16;19.40;99.90
26212;DHT22;13951;49.516;6.094;2023-08-30T10:13:55;19.40;99.90
26212;DHT22;13951;49.516;6.094;2023-08-30T10:16:54;19.30;99.90
26212;DHT22;13951;49.516;6.094;2023-08-30T10:19:26;19.20;99.90
26212;DHT22;13951;49.516;6.094;2023-08-30T10:22:06;19.10;99.90
26212;DHT22;13951;49.516;6.094;2023-08-30T10:25:04;18.90;99.90
26212;DHT22;13951;49.516;6.094;2023-08-30T10:27:46;18.80;99.90
26212;DHT22;13951;49.516;6.094;2023-08-30T10:30:21;18.70;99.90
26212;DHT22;13951;49.516;6.094;2023-08-30T10:32:55;18.60;99.90
26212;DHT22;13951;49.516;6.094;2023-08-30T10:35:28;18.70;99.90
26212;DHT22;13951;49.516;6.094;2023-08-30T10:38:02;18.70;99.90
26212;DHT22;13951;49.516;6.094;2023-08-30T10:40:44;18.70;99.90
26212;DHT22;13951;49.516;6.094;2023-08-30T10:43:28;18.70;99.90
26212;DHT22;13951;49.516;6.094;2023-08-30T10:46:05;18.70;99.90
26212;DHT22;13951;49.516;6.094;2023-08-30T10:48:44;18.70;99.90
26212;DHT22;13951;49.516;6.094;2023-08-30T10:51:35;18.70;99.90
26212;DHT22;13951;49.516;6.094;2023-08-30T10:54:13;18.60;99.90
26212;DHT22;13951;49.516;6.094;2023-08-30T10:56:57;18.60;99.90
26212;DHT22;13951;49.516;6.094;2023-08-30T10:59:34;18.60;99.90
26212;DHT22;13951;49.516;6.094;2023-08-30T11:02:07;18.70;99.90
26212;DHT22;13951;49.516;6.094;2023-08-30T11:04:41;18.90;99.90
26212;DHT22;13951;49.516;6.094;2023-08-30T11:07:15;19.00;99.90
26212;DHT22;13951;49.516;6.094;2023-08-30T11:09:49;19.10;99.90
26212;DHT22;13951;49.516;6.094;2023-08-30T11:12:24;19.00;99.90
26212;DHT22;13951;49.516;6.094;2023-08-30T11:15:03;18.90;99.90
26212;DHT22;13951;49.516;6.094;2023-08-30T11:17:36;18.80;99.90
26212;DHT22;13951;49.516;6.094;2023-08-30T11:20:14;18.70;99.90
26212;DHT22;13951;49.516;6.094;2023-08-30T11:22:48;18.80;99.90
26212;DHT22;13951;49.516;6.094;2023-08-30T11:25:22;18.80;99.90
26212;DHT22;13951;49.516;6.094;2023-08-30T11:28:05;18.80;99.90
26212;DHT22;13951;49.516;6.094;2023-08-30T11:30:41;18.80;99.90
26212;DHT22;13951;49.516;6.094;2023-08-30T11:33:18;18.80;99.90
26212;DHT22;13951;49.516;6.094;2023-08-30T11:35:54;18.90;99.90
26212;DHT22;13951;49.516;6.094;2023-08-30T11:38:27;19.10;99.90
26212;DHT22;13951;49.516;6.094;2023-08-30T11:41:02;19.10;99.90
26212;DHT22;13951;49.516;6.094;2023-08-30T11:43:36;19.00;99.90
26212;DHT22;13951;49.516;6.094;2023-08-30T11:46:10;18.90;99.90
26212;DHT22;13951;49.516;6.094;2023-08-30T11:48:50;18.80;99.90
26212;DHT22;13951;49.516;6.094;2023-08-30T11:51:23;18.80;99.90
26212;DHT22;13951;49.516;6.094;2023-08-30T11:53:57;18.80;99.90
26212;DHT22;13951;49.516;6.094;2023-08-30T11:56:30;18.90;99.90
26212;DHT22;13951;49.516;6.094;2023-08-30T11:59:04;18.90;99.90
26212;DHT22;13951;49.516;6.094;2023-08-30T12:01:37;18.90;99.90
26212;DHT22;13951;49.516;6.094;2023-08-30T12:04:11;18.80;99.90
26212;DHT22;13951;49.516;6.094;2023-08-30T12:06:51;18.70;99.90
26212;DHT22;13951;49.516;6.094;2023-08-30T12:09:35;18.70;99.90
26212;DHT22;13951;49.516;6.094;2023-08-30T12:12:10;18.80;99.90
26212;DHT22;13951;49.516;6.094;2023-08-30T12:14:43;18.80;99.90
26212;DHT22;13951;49.516;6.094;2023-08-30T12:17:17;18.70;99.90
26212;DHT22;13951;49.516;6.094;2023-08-30T12:19:57;18.70;99.90
26212;DHT22;13951;49.516;6.094;2023-08-30T12:22:41;18.70;99.90
26212;DHT22;13951;49.516;6.094;2023-08-30T12:25:22;18.70;99.90
26212;DHT22;13951;49.516;6.094;2023-08-30T12:27:57;18.70;99.90
26212;DHT22;13951;49.516;6.094;2023-08-30T12:30:30;18.60;99.90
26212;DHT22;13951;49.516;6.094;2023-08-30T12:33:03;18.60;99.90
26212;DHT22;13951;49.516;6.094;2023-08-30T12:35:37;18.60;99.90
26212;DHT22;13951;49.516;6.094;2023-08-30T12:38:11;18.50;99.90
26212;DHT22;13951;49.516;6.094;2023-08-30T12:40:52;18.50;99.90
26212;DHT22;13951;49.516;6.094;2023-08-30T12:43:26;18.40;99.90
26212;DHT22;13951;49.516;6.094;2023-08-30T12:46:01;18.40;99.90
26212;DHT22;13951;49.516;6.094;2023-08-30T12:48:34;18.50;99.90
26212;DHT22;13951;49.516;6.094;2023-08-30T12:51:07;18.40;99.90
26212;DHT22;13951;49.516;6.094;2023-08-30T12:53:40;18.50;99.90
26212;DHT22;13951;49.516;6.094;2023-08-30T12:56:13;18.50;99.90
26212;DHT22;13951;49.516;6.094;2023-08-30T12:58:47;18.50;99.90
26212;DHT22;13951;49.516;6.094;2023-08-30T13:01:20;18.30;99.90
26212;DHT22;13951;49.516;6.094;2023-08-30T13:03:53;18.20;99.90
26212;DHT22;13951;49.516;6.094;2023-08-30T13:06:26;18.10;99.90
26212;DHT22;13951;49.516;6.094;2023-08-30T13:09:00;18.10;99.90
26212;DHT22;13951;49.516;6.094;2023-08-30T13:11:33;18.00;99.90
26212;DHT22;13951;49.516;6.094;2023-08-30T13:14:06;18.00;99.90
26212;DHT22;13951;49.516;6.094;2023-08-30T13:16:39;17.90;99.90
26212;DHT22;13951;49.516;6.094;2023-08-30T13:19:12;17.90;99.90
26212;DHT22;13951;49.516;6.094;2023-08-30T13:21:46;17.80;99.90
26212;DHT22;13951;49.516;6.094;2023-08-30T13:24:19;17.80;99.90
26212;DHT22;13951;49.516;6.094;2023-08-30T13:26:52;17.80;99.90
26212;DHT22;13951;49.516;6.094;2023-08-30T13:29:30;17.80;99.90
26212;DHT22;13951;49.516;6.094;2023-08-30T13:32:04;17.70;99.90
26212;DHT22;13951;49.516;6.094;2023-08-30T13:34:40;17.60;99.90
26212;DHT22;13951;49.516;6.094;2023-08-30T13:37:13;17.70;99.90
26212;DHT22;13951;49.516;6.094;2023-08-30T13:39:49;17.70;99.90
26212;DHT22;13951;49.516;6.094;2023-08-30T13:42:22;17.70;99.90
26212;DHT22;13951;49.516;6.094;2023-08-30T13:44:56;17.70;99.90
26212;DHT22;13951;49.516;6.094;2023-08-30T13:47:40;17.70;99.90
26212;DHT22;13951;49.516;6.094;2023-08-30T13:50:13;17.80;99.90
26212;DHT22;13951;49.516;6.094;2023-08-30T13:52:50;17.80;99.90
26212;DHT22;13951;49.516;6.094;2023-08-30T13:55:26;17.80;99.90
26212;DHT22;13951;49.516;6.094;2023-08-30T13:58:03;17.80;99.90
26212;DHT22;13951;49.516;6.094;2023-08-30T14:00:39;17.80;99.90
26212;DHT22;13951;49.516;6.094;2023-08-30T14:03:13;17.60;99.90
26212;DHT22;13951;49.516;6.094;2023-08-30T14:05:48;17.70;99.90
26212;DHT22;13951;49.516;6.094;2023-08-30T14:08:22;17.80;99.90
26212;DHT22;13951;49.516;6.094;2023-08-30T14:10:56;17.90;99.90
26212;DHT22;13951;49.516;6.094;2023-08-30T14:13:30;18.00;99.90
26212;DHT22;13951;49.516;6.094;2023-08-30T14:16:08;18.00;99.90
26212;DHT22;13951;49.516;6.094;2023-08-30T14:18:43;18.00;99.90
26212;DHT22;13951;49.516;6.094;2023-08-30T14:21:16;18.10;99.90
26212;DHT22;13951;49.516;6.094;2023-08-30T14:23:50;18.10;99.90
26212;DHT22;13951;49.516;6.094;2023-08-30T14:26:50;18.10;99.90
26212;DHT22;13951;49.516;6.094;2023-08-30T14:35:42;18.10;99.90
26212;DHT22;13951;49.516;6.094;2023-08-30T14:38:19;18.10;99.90
26212;DHT22;13951;49.516;6.094;2023-08-30T14:40:58;18.10;99.90
26212;DHT22;13951;49.516;6.094;2023-08-30T14:43:35;18.00;99.90
26212;DHT22;13951;49.516;6.094;2023-08-30T14:46:08;18.00;99.90
26212;DHT22;13951;49.516;6.094;2023-08-30T14:48:47;18.00;99.90
26212;DHT22;13951;49.516;6.094;2023-08-30T14:51:20;17.90;99.90
26212;DHT22;13951;49.516;6.094;2023-08-30T14:53:54;17.80;99.90
26212;DHT22;13951;49.516;6.094;2023-08-30T14:56:28;17.60;99.90
26212;DHT22;13951;49.516;6.094;2023-08-30T14:59:04;17.50;99.90
26212;DHT22;13951;49.516;6.094;2023-08-30T15:01:39;17.30;99.90
26212;DHT22;13951;49.516;6.094;2023-08-30T15:04:12;17.10;99.90
26212;DHT22;13951;49.516;6.094;2023-08-30T15:06:47;16.90;99.90
26212;DHT22;13951;49.516;6.094;2023-08-30T15:09:23;16.70;99.90
26212;DHT22;13951;49.516;6.094;2023-08-30T15:11:56;16.60;99.90
26212;DHT22;13951;49.516;6.094;2023-08-30T15:14:32;16.50;99.90
26212;DHT22;13951;49.516;6.094;2023-08-30T15:17:05;16.50;99.90
26212;DHT22;13951;49.516;6.094;2023-08-30T15:19:39;16.40;99.90
26212;DHT22;13951;49.516;6.094;2023-08-30T15:22:12;16.40;99.90
26212;DHT22;13951;49.516;6.094;2023-08-30T15:24:45;16.40;99.90
26212;DHT22;13951;49.516;6.094;2023-08-30T15:27:18;16.40;99.90
26212;DHT22;13951;49.516;6.094;2023-08-30T15:29:51;16.40;99.90
26212;DHT22;13951;49.516;6.094;2023-08-30T15:32:27;16.50;99.90
26212;DHT22;13951;49.516;6.094;2023-08-30T15:35:05;16.60;99.90
26212;DHT22;13951;49.516;6.094;2023-08-30T15:37:42;16.60;99.90
26212;DHT22;13951;49.516;6.094;2023-08-30T15:40:18;16.70;99.90
26212;DHT22;13951;49.516;6.094;2023-08-30T15:42:53;16.70;99.90
26212;DHT22;13951;49.516;6.094;2023-08-30T15:45:26;16.70;99.90
26212;DHT22;13951;49.516;6.094;2023-08-30T15:47:59;16.80;99.90
26212;DHT22;13951;49.516;6.094;2023-08-30T15:50:32;16.80;99.90
26212;DHT22;13951;49.516;6.094;2023-08-30T15:53:09;16.80;99.90
26212;DHT22;13951;49.516;6.094;2023-08-30T15:55:48;16.80;99.90
26212;DHT22;13951;49.516;6.094;2023-08-30T15:58:24;16.80;99.90
26212;DHT22;13951;49.516;6.094;2023-08-30T16:01:03;16.80;99.90
26212;DHT22;13951;49.516;6.094;2023-08-30T16:03:36;16.80;99.90
26212;DHT22;13951;49.516;6.094;2023-08-30T16:06:10;16.80;99.90
26212;DHT22;13951;49.516;6.094;2023-08-30T16:08:43;16.80;99.90
26212;DHT22;13951;49.516;6.094;2023-08-30T16:11:16;16.80;99.90
26212;DHT22;13951;49.516;6.094;2023-08-30T16:13:49;16.80;99.90
26212;DHT22;13951;49.516;6.094;2023-08-30T16:16:24;16.80;99.90
26212;DHT22;13951;49.516;6.094;2023-08-30T16:18:57;16.80;99.90
26212;DHT22;13951;49.516;6.094;2023-08-30T16:21:30;16.80;99.90
26212;DHT22;13951;49.516;6.094;2023-08-30T16:24:06;16.80;99.90
26212;DHT22;13951;49.516;6.094;2023-08-30T16:26:41;16.80;99.90
26212;DHT22;13951;49.516;6.094;2023-08-30T16:29:15;16.80;99.90
26212;DHT22;13951;49.516;6.094;2023-08-30T16:31:51;16.80;99.90
26212;DHT22;13951;49.516;6.094;2023-08-30T16:34:26;16.80;99.90
26212;DHT22;13951;49.516;6.094;2023-08-30T16:36:59;16.80;99.90
26212;DHT22;13951;49.516;6.094;2023-08-30T16:39:32;16.80;99.90
26212;DHT22;13951;49.516;6.094;2023-08-30T16:42:08;16.80;99.90